Time;durP1;ratioP1;P1;durP2;ratioP2;P2;SDS_P1;SDS_P2;PMS_P1;PMS_P2;Temp;Humidity;BMP_temperature;BMP_pressure;BME280_temperature;BME280_humidity;BME280_pressure;Samples;Min_cycle;Max_cycle;Signal;HPM_P1;HPM_P2
2022/02/15 00:01:26;;;;;;;18.77;9.95;;;;;;;-2.57;67.80;102286.17;1916057;75;21467;-63
2022/02/15 00:03:55;;;;;;;21.68;9.85;;;;;;;-2.58;67.86;102286.14;1916095;75;21107;-64
2022/02/15 00:06:24;;;;;;;21.07;9.98;;;;;;;-2.60;67.83;102291.61;1916007;75;21049;-64
2022/02/15 00:08:53;;;;;;;21.12;10.10;;;;;;;-2.65;67.91;102286.70;1916012;75;21473;-66
2022/02/15 00:11:21;;;;;;;20.92;10.20;;;;;;;-2.63;68.09;102292.80;1916077;75;21034;-64
2022/02/15 00:13:50;;;;;;;22.07;9.48;;;;;;;-2.65;68.11;102290.16;1917361;75;21199;-64
2022/02/15 00:16:19;;;;;;;24.25;9.18;;;;;;;-2.66;68.07;102290.96;1919217;75;21136;-64
2022/02/15 00:18:48;;;;;;;20.55;8.95;;;;;;;-2.67;68.06;102286.64;1919349;74;21027;-64
2022/02/15 00:21:16;;;;;;;30.40;11.12;;;;;;;-2.69;68.15;102287.37;1919342;75;21078;-64
2022/02/15 00:23:45;;;;;;;24.27;11.28;;;;;;;-2.73;67.69;102282.13;1919490;75;21007;-63
2022/02/15 00:26:14;;;;;;;29.87;10.78;;;;;;;-2.73;68.26;102282.51;1919242;74;21034;-64
2022/02/15 00:28:42;;;;;;;23.40;9.58;;;;;;;-2.76;68.16;102280.70;1919392;75;21058;-63
2022/02/15 00:31:12;;;;;;;22.93;11.50;;;;;;;-2.81;68.03;102271.89;1919247;74;21066;-64
2022/02/15 00:33:41;;;;;;;28.90;13.18;;;;;;;-2.79;68.16;102279.27;1919331;75;21034;-62
2022/02/15 00:36:10;;;;;;;28.27;13.13;;;;;;;-2.79;68.20;102274.53;1919360;74;21038;-63
2022/02/15 00:38:39;;;;;;;37.75;17.87;;;;;;;-2.88;67.93;102259.56;1919342;75;21030;-63
2022/02/15 00:41:07;;;;;;;36.13;15.93;;;;;;;-2.86;68.35;102264.37;1913467;75;21548;-64
2022/02/15 00:43:36;;;;;;;41.25;18.65;;;;;;;-2.86;68.33;102262.21;1900277;75;21081;-65
2022/02/15 00:46:06;;;;;;;73.45;34.70;;;;;;;-2.89;68.37;102266.84;1900363;75;21002;-62
2022/02/15 00:48:36;;;;;;;82.85;39.05;;;;;;;-2.90;68.40;102256.05;1919484;75;21011;-64
2022/02/15 01:13:26;;;;;;;46.35;21.65;;;;;;;-2.76;73.04;102245.89;1959005;73;22555;-63
2022/02/15 01:15:56;;;;;;;36.75;19.23;;;;;;;-2.76;72.17;102238.58;1918379;75;21126;-62
2022/02/15 01:18:26;;;;;;;40.40;19.52;;;;;;;-2.73;71.18;102252.47;1918148;74;21188;-60
2022/02/15 01:20:55;;;;;;;55.48;22.82;;;;;;;-2.75;70.73;102251.92;1918304;75;21001;-64
2022/02/15 01:23:24;;;;;;;57.48;25.82;;;;;;;-2.80;70.49;102247.88;1918266;75;21427;-64
2022/02/15 01:25:53;;;;;;;57.75;24.30;;;;;;;-2.85;70.27;102244.23;1918208;75;21036;-64
2022/02/15 01:28:23;;;;;;;44.53;18.82;;;;;;;-2.87;70.04;102242.42;1918217;74;21032;-63
2022/02/15 01:30:52;;;;;;;42.65;19.67;;;;;;;-2.92;69.94;102246.09;1918138;75;21048;-62
2022/02/15 01:33:21;;;;;;;63.65;24.92;;;;;;;-2.98;69.85;102249.72;1918227;73;21036;-62
2022/02/15 01:35:49;;;;;;;60.55;25.45;;;;;;;-3.07;69.96;102240.33;1918294;75;21129;-61
2022/02/15 01:38:18;;;;;;;43.00;21.17;;;;;;;-3.09;69.75;102239.25;1918245;75;21137;-62
2022/02/15 01:40:48;;;;;;;38.35;16.32;;;;;;;-3.13;69.88;102239.25;1918353;75;21571;-62
2022/02/15 01:43:17;;;;;;;34.70;16.07;;;;;;;-3.14;69.64;102252.94;1918237;73;21196;-64
2022/02/15 01:45:46;;;;;;;32.28;13.38;;;;;;;-3.17;69.59;102250.64;1918294;75;21008;-61
2022/02/15 01:48:15;;;;;;;27.10;12.93;;;;;;;-3.21;69.84;102253.53;1918275;75;21083;-60
2022/02/15 01:50:45;;;;;;;28.92;13.30;;;;;;;-3.21;69.84;102253.53;1918367;75;21052;-60
2022/02/15 01:53:13;;;;;;;37.73;13.22;;;;;;;-3.23;69.57;102253.84;1918139;75;21032;-60
2022/02/15 01:55:43;;;;;;;34.10;14.35;;;;;;;-3.25;69.59;102258.47;1918144;75;21502;-62
2022/02/15 01:58:13;;;;;;;35.50;13.08;;;;;;;-3.28;69.60;102255.38;1885676;76;21104;-61
2022/02/15 02:00:43;;;;;;;20.90;9.73;;;;;;;-3.27;69.76;102256.24;1885214;76;21158;-64
2022/02/15 02:03:14;;;;;;;20.55;9.00;;;;;;;-3.30;69.66;102266.02;1884010;75;21062;-64
2022/02/15 02:05:49;;;;;;;19.10;8.70;;;;;;;-3.32;69.69;102266.34;1885625;76;21043;-65
2022/02/15 02:08:22;;;;;;;27.62;10.38;;;;;;;-3.39;69.95;102254.05;1885192;75;21095;-63
2022/02/15 02:10:52;;;;;;;25.10;9.88;;;;;;;-3.37;69.73;102269.16;1885590;75;21040;-62
2022/02/15 02:13:22;;;;;;;29.45;12.30;;;;;;;-3.41;69.63;102262.98;1875495;75;21505;-61
2022/02/15 02:15:52;;;;;;;22.00;9.20;;;;;;;-3.44;70.08;102267.13;1873493;76;21032;-61
2022/02/15 02:18:35;;;;;;;21.57;10.30;;;;;;;-3.46;70.07;102264.90;1872374;76;21071;-64
2022/02/15 02:21:05;;;;;;;20.27;8.50;;;;;;;-3.54;70.10;102254.23;1873415;76;21723;-62
2022/02/15 02:23:35;;;;;;;18.87;8.60;;;;;;;-3.54;70.10;102260.67;1873050;76;21060;-62
2022/02/15 02:26:05;;;;;;;20.32;8.73;;;;;;;-3.53;69.95;102263.33;1872103;76;21063;-62
2022/02/15 02:28:37;;;;;;;23.67;8.88;;;;;;;-3.56;70.19;102264.50;1872772;76;21552;-59
2022/02/15 02:31:05;;;;;;;26.75;9.15;;;;;;;-3.58;70.23;102262.27;1872763;76;21119;-60
2022/02/15 02:33:36;;;;;;;25.25;10.93;;;;;;;-3.57;70.17;102258.86;1872413;76;21193;-59
2022/02/15 02:36:06;;;;;;;19.30;8.98;;;;;;;-3.61;70.37;102256.98;1872718;77;21039;-59
2022/02/15 02:38:35;;;;;;;16.77;8.40;;;;;;;-3.63;70.54;102265.43;1872676;77;21097;-60
2022/02/15 02:41:04;;;;;;;20.37;9.18;;;;;;;-3.69;70.70;102255.75;1872861;77;21494;-60
2022/02/15 02:43:34;;;;;;;16.62;7.42;;;;;;;-3.69;70.71;102269.52;1872706;77;21072;-58
2022/02/15 02:46:03;;;;;;;18.77;7.55;;;;;;;-3.69;70.71;102269.52;1872637;76;21131;-59
2022/02/15 02:48:33;;;;;;;18.05;8.88;;;;;;;-3.70;70.64;102272.02;1872697;76;21072;-61
2022/02/15 02:51:02;;;;;;;24.12;8.05;;;;;;;-3.72;70.78;102271.95;1872724;77;21492;-59
2022/02/15 02:53:31;;;;;;;21.65;8.53;;;;;;;-3.72;70.69;102272.37;1872791;76;21602;-61
2022/02/15 02:56:00;;;;;;;15.93;7.65;;;;;;;-3.72;70.65;102269.80;1876374;75;21477;-60
2022/02/15 02:58:30;;;;;;;19.05;7.62;;;;;;;-3.71;70.56;102275.39;1892189;75;21431;-60
2022/02/15 03:00:59;;;;;;;23.98;9.70;;;;;;;-3.71;70.48;102271.53;1905190;75;21130;-60
2022/02/15 03:03:29;;;;;;;21.27;9.75;;;;;;;-3.76;70.48;102274.31;1904714;74;21089;-61
2022/02/15 03:05:58;;;;;;;22.50;10.18;;;;;;;-3.77;70.41;102276.42;1905247;75;21157;-60
2022/02/15 03:08:27;;;;;;;21.42;10.18;;;;;;;-3.77;70.41;102276.42;1905207;75;21013;-61
2022/02/15 03:10:55;;;;;;;21.10;8.95;;;;;;;-3.73;70.55;102284.75;1905075;74;21020;-61
2022/02/15 03:13:35;;;;;;;22.80;9.35;;;;;;;-3.77;70.29;102277.71;1865977;75;21079;-61
2022/02/15 03:16:06;;;;;;;19.85;8.40;;;;;;;-3.74;70.68;102286.87;1905074;74;21157;-61
2022/02/15 03:18:35;;;;;;;21.40;9.78;;;;;;;-3.75;70.90;102278.66;1905175;74;21434;-62
2022/02/15 03:21:11;;;;;;;27.40;12.53;;;;;;;-3.78;70.79;102284.94;1905022;75;21080;-61
2022/02/15 03:23:40;;;;;;;22.35;10.58;;;;;;;-3.80;70.78;102287.86;1905226;75;21001;-60
2022/02/15 03:26:11;;;;;;;26.35;10.98;;;;;;;-3.82;70.80;102283.05;1905121;75;21076;-58
2022/02/15 03:28:42;;;;;;;17.17;7.90;;;;;;;-3.84;71.00;102285.97;1905174;75;21514;-58
2022/02/15 03:31:11;;;;;;;26.17;10.03;;;;;;;-3.84;71.00;102284.53;1905270;75;21474;-59
2022/02/15 03:33:40;;;;;;;31.07;9.35;;;;;;;-3.88;70.92;102284.53;1905242;75;21072;-60
2022/02/15 03:36:09;;;;;;;23.15;8.35;;;;;;;-3.89;71.10;102289.22;1905047;74;21113;-61
2022/02/15 03:38:39;;;;;;;21.00;8.33;;;;;;;-3.90;71.21;102289.16;1905138;75;21111;-59
2022/02/15 03:43:57;;;;;;;20.37;8.35;;;;;;;-3.89;71.13;102294.37;1899431;75;21072;-61
2022/02/15 03:46:27;;;;;;;24.20;10.70;;;;;;;-3.90;71.06;102299.44;1904930;74;21072;-61
2022/02/15 03:48:57;;;;;;;31.17;11.93;;;;;;;-3.93;71.10;102300.58;1905349;75;21033;-61
2022/02/15 03:51:25;;;;;;;31.73;13.08;;;;;;;-3.94;71.15;102298.42;1905234;75;21129;-60
2022/02/15 03:53:56;;;;;;;27.48;11.60;;;;;;;-3.94;71.20;102301.00;1905087;75;21056;-60
2022/02/15 03:56:25;;;;;;;30.37;13.50;;;;;;;-3.95;71.32;102301.80;1905119;75;21024;-60
2022/02/15 03:58:54;;;;;;;22.35;9.93;;;;;;;-3.95;71.32;102301.80;1905063;75;21134;-60
2022/02/15 04:01:23;;;;;;;18.77;9.40;;;;;;;-3.92;71.15;102309.66;1905165;75;21064;-61
2022/02/15 04:03:52;;;;;;;28.00;11.83;;;;;;;-3.90;70.85;102318.75;1884009;75;21431;-60
2022/02/15 04:06:23;;;;;;;20.62;7.45;;;;;;;-3.90;70.85;102318.75;1905199;74;21126;-60
2022/02/15 04:08:51;;;;;;;19.02;7.97;;;;;;;-3.91;71.08;102315.30;1902179;75;21017;-60
2022/02/15 04:11:20;;;;;;;20.10;8.48;;;;;;;-4.04;71.54;102318.09;1893642;75;21056;-60
2022/02/15 04:13:49;;;;;;;17.67;7.17;;;;;;;-4.04;71.54;102318.09;1880109;75;21047;-61
2022/02/15 04:16:18;;;;;;;17.10;7.80;;;;;;;-4.03;71.48;102323.73;1907352;74;21094;-62
2022/02/15 04:18:48;;;;;;;20.62;7.40;;;;;;;-4.06;71.38;102323.58;1925002;74;21512;-62
2022/02/15 04:21:23;;;;;;;21.23;10.28;;;;;;;-4.04;71.27;102326.23;1924855;74;21109;-62
2022/02/15 04:23:52;;;;;;;17.32;8.20;;;;;;;-4.04;71.26;102319.80;1924744;74;21117;-62
2022/02/15 04:26:22;;;;;;;24.87;9.45;;;;;;;-4.04;71.20;102323.25;1924836;74;21024;-62
2022/02/15 04:28:51;;;;;;;17.55;7.92;;;;;;;-4.03;71.09;102323.73;1904182;74;21102;-62
2022/02/15 04:31:21;;;;;;;21.55;10.18;;;;;;;-4.01;71.06;102327.26;1890734;75;21454;-61
2022/02/15 04:33:51;;;;;;;19.35;8.00;;;;;;;-3.99;71.06;102326.92;1891687;76;21591;-60
2022/02/15 04:36:20;;;;;;;28.67;9.08;;;;;;;-3.98;71.48;102326.13;1891734;76;21153;-61
2022/02/15 04:38:50;;;;;;;19.12;8.45;;;;;;;-3.95;71.31;102327.53;1891166;75;21074;-62
2022/02/15 04:41:19;;;;;;;20.27;8.90;;;;;;;-3.92;71.21;102328.97;1891712;76;21098;-63
2022/02/15 04:43:48;;;;;;;26.87;10.32;;;;;;;-3.79;71.38;102321.39;1891739;76;21563;-63
2022/02/15 04:46:19;;;;;;;21.07;8.60;;;;;;;-3.79;71.38;102321.39;1891337;74;21060;-63
2022/02/15 04:48:48;;;;;;;18.32;8.50;;;;;;;-3.60;71.44;102330.81;1891648;76;21549;-64
2022/02/15 04:51:18;;;;;;;18.67;8.68;;;;;;;-3.36;71.05;102327.56;1913519;74;21428;-62
2022/02/15 04:53:48;;;;;;;19.80;8.65;;;;;;;-3.36;71.05;102327.56;1906160;74;21071;-62
2022/02/15 04:56:17;;;;;;;20.12;8.90;;;;;;;-3.19;71.10;102339.49;1924863;74;21446;-62
2022/02/15 04:58:46;;;;;;;18.98;7.78;;;;;;;-2.99;70.82;102347.17;1924858;74;21027;-64
2022/02/15 05:01:16;;;;;;;13.38;6.92;;;;;;;-2.71;70.49;102350.52;1924943;74;21430;-64
2022/02/15 05:03:49;;;;;;;11.65;5.90;;;;;;;-2.37;70.49;102351.45;1905242;74;21216;-61
2022/02/15 05:06:18;;;;;;;10.88;5.90;;;;;;;-2.04;70.38;102349.73;1912377;75;21001;-61
2022/02/15 05:08:47;;;;;;;9.23;4.53;;;;;;;-1.75;70.23;102352.55;1912392;74;21476;-61
2022/02/15 05:11:16;;;;;;;14.43;7.80;;;;;;;-1.50;70.06;102362.48;1912409;75;21123;-61
2022/02/15 05:13:46;;;;;;;19.30;7.60;;;;;;;-1.36;69.79;102350.95;1912017;74;21060;-61
2022/02/15 05:16:20;;;;;;;21.97;8.90;;;;;;;-1.20;69.49;102360.11;1910339;74;21125;-61
2022/02/15 05:18:50;;;;;;;17.35;9.70;;;;;;;-0.95;69.42;102361.86;1910260;74;21049;-62
2022/02/15 05:21:21;;;;;;;22.50;8.80;;;;;;;-0.57;69.28;102358.39;1914949;74;21605;-61
2022/02/15 05:23:51;;;;;;;22.55;7.72;;;;;;;-0.17;69.42;102355.76;1915052;74;21077;-61
2022/02/15 05:26:21;;;;;;;22.48;9.60;;;;;;;0.20;69.59;102362.05;1915216;74;21052;-61
2022/02/15 05:28:54;;;;;;;26.20;9.75;;;;;;;0.51;69.36;102359.94;1914922;74;21123;-61
2022/02/15 05:31:24;;;;;;;17.35;7.55;;;;;;;0.80;68.83;102370.26;1915311;75;21491;-61
2022/02/15 05:33:52;;;;;;;27.65;8.28;;;;;;;1.11;68.12;102369.36;1915182;74;21092;-61
2022/02/15 05:36:21;;;;;;;30.17;10.30;;;;;;;1.44;67.94;102364.57;1915252;74;21561;-61
2022/02/15 05:38:51;;;;;;;23.57;8.83;;;;;;;1.77;67.52;102363.63;1915418;74;21487;-61
2022/02/15 05:41:20;;;;;;;18.98;7.30;;;;;;;2.04;66.34;102362.48;1915506;75;21129;-62
2022/02/15 05:43:49;;;;;;;24.87;9.03;;;;;;;2.25;65.07;102368.16;1915283;75;21072;-63
2022/02/15 05:46:19;;;;;;;25.85;9.63;;;;;;;2.62;65.35;102369.33;1915139;74;21033;-64
2022/02/15 05:48:50;;;;;;;26.70;12.63;;;;;;;3.03;64.87;102364.92;1914736;74;21060;-61
2022/02/15 05:51:20;;;;;;;24.32;12.23;;;;;;;3.32;63.55;102368.48;1912801;75;21056;-61
2022/02/15 05:53:52;;;;;;;23.18;9.03;;;;;;;3.65;63.26;102365.95;1914596;74;21155;-61
2022/02/15 05:56:26;;;;;;;22.93;8.53;;;;;;;4.18;63.23;102365.86;1914896;74;21128;-61
2022/02/15 05:58:56;;;;;;;24.52;8.95;;;;;;;4.77;62.82;102370.49;1914255;74;21166;-61
2022/02/15 06:01:43;;;;;;;17.52;7.22;;;;;;;5.29;62.33;102367.53;1874557;74;21043;-61
2022/02/15 06:04:12;;;;;;;26.45;10.28;;;;;;;5.87;61.82;102360.59;1919633;75;21081;-61
2022/02/15 06:06:43;;;;;;;35.60;18.70;;;;;;;6.24;61.35;102363.45;1919859;74;21056;-61
2022/02/15 06:09:13;;;;;;;43.68;19.02;;;;;;;6.56;60.74;102361.81;1920699;74;21077;-64
2022/02/15 06:11:43;;;;;;;63.83;25.08;;;;;;;6.73;59.95;102355.77;1920551;74;21077;-62
2022/02/15 06:14:12;;;;;;;219.97;45.23;;;;;;;6.90;59.28;102354.08;1920718;75;21050;-61
2022/02/15 06:16:42;;;;;;;40.17;11.08;;;;;;;7.23;59.01;102351.08;1920644;75;21041;-62
2022/02/15 06:19:12;;;;;;;72.17;19.98;;;;;;;7.58;58.41;102350.20;1919995;74;21495;-62
2022/02/15 06:21:41;;;;;;;23.65;9.25;;;;;;;7.86;57.80;102350.16;1920868;75;21061;-62
2022/02/15 06:24:12;;;;;;;15.78;7.47;;;;;;;8.29;56.84;102348.72;1920054;74;21068;-62
2022/02/15 06:26:41;;;;;;;52.73;14.95;;;;;;;8.71;55.29;102347.26;1920866;75;21453;-62
2022/02/15 06:29:23;;;;;;;16.73;7.80;;;;;;;9.18;53.95;102353.48;1903835;74;21119;-62
2022/02/15 06:31:54;;;;;;;17.62;8.03;;;;;;;9.59;53.39;102350.98;1920170;74;21147;-62
2022/02/15 06:34:24;;;;;;;26.33;9.95;;;;;;;10.02;52.89;102346.59;1920778;74;21502;-62
2022/02/15 06:36:54;;;;;;;37.42;11.30;;;;;;;10.57;51.74;102344.23;1920877;75;21087;-61
2022/02/15 06:39:24;;;;;;;33.02;10.55;;;;;;;11.12;50.36;102347.38;1920834;74;21034;-63
2022/02/15 06:41:54;;;;;;;16.10;6.83;;;;;;;11.25;49.16;102341.89;1920699;73;21078;-62
2022/02/15 06:44:23;;;;;;;19.32;7.92;;;;;;;11.59;48.32;102341.73;1920784;74;21057;-62
2022/02/15 06:46:52;;;;;;;15.83;7.80;;;;;;;11.98;47.47;102343.25;1920822;74;21029;-62
2022/02/15 06:49:22;;;;;;;23.20;9.68;;;;;;;12.27;46.76;102339.63;1920107;74;21068;-61
2022/02/15 06:52:09;;;;;;;21.23;10.63;;;;;;;12.45;46.08;102337.03;1920572;74;21082;-63
2022/02/15 06:54:39;;;;;;;22.50;10.98;;;;;;;12.82;45.30;102342.81;1920781;75;21033;-62
2022/02/15 06:57:10;;;;;;;20.55;9.78;;;;;;;12.92;44.41;102336.43;1920709;75;21053;-62
2022/02/15 06:59:39;;;;;;;20.52;8.75;;;;;;;13.32;44.01;102333.72;1920729;74;21468;-62
2022/02/15 07:02:08;;;;;;;19.73;9.75;;;;;;;13.58;43.09;102330.00;1920859;74;21918;-62
2022/02/15 07:04:38;;;;;;;19.40;8.48;;;;;;;13.80;42.29;102331.16;1920462;74;21080;-62
2022/02/15 07:07:07;;;;;;;22.93;9.20;;;;;;;14.14;41.88;102327.55;1920714;74;21156;-62
2022/02/15 07:09:36;;;;;;;18.98;9.50;;;;;;;14.19;41.36;102320.35;1920715;74;21198;-62
2022/02/15 07:12:20;;;;;;;28.77;11.78;;;;;;;14.47;40.79;102320.86;1919740;74;21127;-62
2022/02/15 07:14:53;;;;;;;18.45;7.60;;;;;;;14.60;40.26;102323.57;1920105;74;21473;-63
2022/02/15 07:17:24;;;;;;;14.60;8.20;;;;;;;14.85;39.54;102325.48;1920109;74;21186;-61
2022/02/15 07:19:53;;;;;;;17.67;7.47;;;;;;;15.13;39.22;102321.94;1920773;75;21115;-62
2022/02/15 07:25:33;;;;;;;13.85;7.08;;;;;;;15.52;39.00;102321.03;1918826;74;21209;-62
2022/02/15 07:28:06;;;;;;;17.17;6.40;;;;;;;15.74;38.78;102315.87;1918194;74;21067;-62
2022/02/15 07:30:35;;;;;;;15.30;6.47;;;;;;;15.81;38.53;102317.39;1920796;75;21017;-62
2022/02/15 07:33:06;;;;;;;14.70;5.90;;;;;;;16.13;38.04;102310.02;1920021;73;21485;-62
2022/02/15 07:35:36;;;;;;;16.73;7.05;;;;;;;16.06;37.23;102309.84;1920562;73;21079;-62
2022/02/15 07:38:05;;;;;;;12.33;6.62;;;;;;;16.46;37.18;102308.80;1920836;73;21552;-62
2022/02/15 07:40:34;;;;;;;10.63;5.58;;;;;;;16.75;36.63;102306.33;1920820;74;21080;-62
2022/02/15 07:43:03;;;;;;;14.93;6.67;;;;;;;16.96;36.61;102309.94;1920823;75;21092;-62
2022/02/15 07:45:40;;;;;;;16.77;6.42;;;;;;;17.05;36.05;102311.36;1905067;75;21487;-62
2022/02/15 07:48:09;;;;;;;11.48;6.37;;;;;;;17.40;35.25;102309.87;1920819;74;21545;-62
2022/02/15 07:50:40;;;;;;;14.13;6.20;;;;;;;17.75;34.71;102305.66;1920743;75;21640;-62
2022/02/15 07:53:10;;;;;;;13.38;7.25;;;;;;;17.94;34.54;102307.53;1920906;75;21061;-62
2022/02/15 07:55:39;;;;;;;12.40;6.72;;;;;;;18.27;34.33;102301.59;1920911;75;21032;-62
2022/02/15 07:58:08;;;;;;;13.45;7.58;;;;;;;18.40;34.04;102302.74;1920803;73;21537;-62
2022/02/15 08:00:37;;;;;;;16.35;8.00;;;;;;;18.29;33.54;102297.05;1920785;74;21056;-62
2022/02/15 08:03:06;;;;;;;14.80;7.15;;;;;;;18.43;33.20;102298.61;1920694;75;21487;-62
2022/02/15 08:05:35;;;;;;;12.68;5.53;;;;;;;18.74;32.80;102300.26;1920895;75;21153;-62
2022/02/15 08:08:06;;;;;;;16.90;7.60;;;;;;;18.75;31.87;102300.19;1918860;74;21452;-62
2022/02/15 08:10:35;;;;;;;12.80;6.45;;;;;;;18.70;31.81;102294.20;1921043;74;21447;-62
2022/02/15 08:13:05;;;;;;;18.52;8.33;;;;;;;18.97;31.51;102296.50;1920920;75;21056;-62
2022/02/15 08:15:41;;;;;;;19.42;9.38;;;;;;;19.08;31.21;102300.83;1920629;75;21012;-62
2022/02/15 08:18:06;;;;;;;34.50;12.28;;;;;;;19.38;31.07;102304.22;1919249;74;21138;-62
2022/02/15 08:20:36;;;;;;;18.02;8.50;;;;;;;19.64;30.49;102298.40;1920843;75;21496;-62
2022/02/15 08:23:05;;;;;;;15.08;7.80;;;;;;;19.83;30.38;102294.78;1920730;75;21427;-62
2022/02/15 08:25:35;;;;;;;29.07;9.15;;;;;;;20.09;30.15;102300.53;1908115;74;21131;-62
2022/02/15 08:28:04;;;;;;;20.97;10.43;;;;;;;19.97;30.01;102304.72;1904647;75;21061;-62
2022/02/15 08:30:32;;;;;;;20.57;7.55;;;;;;;20.12;29.78;102303.02;1904611;75;21013;-62
2022/02/15 08:33:02;;;;;;;20.25;8.75;;;;;;;20.12;29.89;102301.23;1904711;75;21586;-62
2022/02/15 08:35:31;;;;;;;26.27;9.38;;;;;;;20.26;29.45;102304.47;1904600;75;21093;-63
2022/02/15 08:38:00;;;;;;;17.07;8.38;;;;;;;20.27;28.75;102294.63;1904638;75;21131;-63
2022/02/15 08:40:29;;;;;;;28.57;8.65;;;;;;;20.19;28.47;102296.39;1904516;75;21081;-63
2022/02/15 08:42:58;;;;;;;22.15;8.90;;;;;;;20.46;28.50;102294.48;1904700;75;21029;-63
2022/02/15 08:45:28;;;;;;;14.40;7.50;;;;;;;20.58;28.50;102300.01;1904619;75;21033;-63
2022/02/15 08:47:57;;;;;;;11.78;6.70;;;;;;;20.89;28.34;102293.39;1904754;75;21018;-63
2022/02/15 08:50:27;;;;;;;19.35;7.97;;;;;;;20.99;28.26;102293.25;1904703;75;21057;-62
2022/02/15 08:52:55;;;;;;;13.55;7.25;;;;;;;20.74;28.04;102295.14;1904486;75;21106;-63
2022/02/15 08:55:24;;;;;;;13.58;6.85;;;;;;;20.73;28.06;102292.95;1904617;75;21037;-62
2022/02/15 08:57:53;;;;;;;16.25;7.10;;;;;;;20.70;27.90;102293.11;1904672;75;21036;-62
2022/02/15 09:00:21;;;;;;;16.60;8.03;;;;;;;20.86;27.69;102293.56;1904607;75;21057;-62
2022/02/15 09:02:50;;;;;;;17.57;7.92;;;;;;;21.04;27.61;102282.26;1904557;75;21146;-62
2022/02/15 09:05:19;;;;;;;19.50;8.95;;;;;;;20.93;27.55;102281.05;1904616;75;21049;-64
2022/02/15 09:07:51;;;;;;;24.45;9.68;;;;;;;21.03;27.25;102274.70;1904526;75;21049;-62
2022/02/15 09:10:20;;;;;;;28.92;10.50;;;;;;;21.15;27.25;102274.45;1904550;75;21033;-63
2022/02/15 09:12:49;;;;;;;28.02;10.30;;;;;;;21.24;27.44;102271.22;1904740;75;21143;-62
2022/02/15 09:15:17;;;;;;;30.43;11.68;;;;;;;21.13;27.02;102271.85;1904538;75;21072;-63
2022/02/15 09:17:46;;;;;;;32.93;11.97;;;;;;;21.19;27.06;102263.47;1904569;75;21045;-62
2022/02/15 09:20:14;;;;;;;29.15;11.38;;;;;;;21.45;26.84;102267.77;1904628;75;21092;-62
2022/02/15 09:22:43;;;;;;;34.30;11.65;;;;;;;21.28;26.95;102269.22;1904667;75;21049;-62
2022/02/15 09:25:13;;;;;;;34.48;12.28;;;;;;;21.27;27.02;102263.49;1904615;74;21169;-62
2022/02/15 09:27:42;;;;;;;32.58;12.70;;;;;;;21.25;26.94;102259.56;1904551;75;21061;-62
2022/02/15 09:30:11;;;;;;;32.53;10.65;;;;;;;21.37;26.92;102256.61;1904696;75;21103;-63
2022/02/15 09:32:40;;;;;;;31.62;10.85;;;;;;;21.39;26.92;102253.35;1904390;75;21305;-62
2022/02/15 09:35:09;;;;;;;33.35;12.00;;;;;;;21.47;26.96;102247.09;1904618;75;21029;-62
2022/02/15 09:37:38;;;;;;;43.48;13.88;;;;;;;21.65;26.90;102249.58;1904731;75;21098;-62
2022/02/15 09:40:08;;;;;;;47.43;16.67;;;;;;;21.47;26.66;102247.09;1904944;75;21009;-62
2022/02/15 09:42:39;;;;;;;49.25;17.25;;;;;;;21.43;26.92;102244.16;1904770;75;21092;-62
2022/02/15 09:45:10;;;;;;;46.18;14.87;;;;;;;21.41;26.95;102243.40;1904615;75;21099;-62
2022/02/15 09:47:43;;;;;;;45.20;14.63;;;;;;;21.70;26.81;102236.77;1904786;75;21033;-62
2022/02/15 09:50:11;;;;;;;;;;;;;;;21.61;26.67;102242.70;1907498;75;21033;-62
2022/02/15 09:52:47;;;;;;;54.23;15.80;;;;;;;21.64;27.33;102239.83;1904580;75;20119;-65
2022/02/15 09:55:10;;;;;;;44.23;15.32;;;;;;;21.81;27.06;102231.58;1903787;75;21126;-62
2022/02/15 10:00:30;;;;;;;41.40;14.43;;;;;;;21.86;27.12;102227.29;1960233;73;21449;-61
2022/02/15 10:03:02;;;;;;;40.73;13.58;;;;;;;21.68;27.06;102222.11;1960252;72;21160;-61
2022/02/15 10:05:34;;;;;;;45.17;14.00;;;;;;;21.66;27.04;102219.16;1960207;72;21019;-61
2022/02/15 10:08:03;;;;;;;36.63;12.10;;;;;;;21.79;27.05;102218.76;1960395;73;21547;-62
2022/02/15 10:10:33;;;;;;;26.52;8.38;;;;;;;21.97;26.99;102212.71;1960227;73;20983;-61
2022/02/15 10:13:05;;;;;;;23.32;9.28;;;;;;;21.78;26.90;102213.00;1960373;73;21023;-61
2022/02/15 10:15:40;;;;;;;19.98;7.92;;;;;;;21.39;26.77;102214.50;1960353;73;21128;-61
2022/02/15 10:18:17;;;;;;;18.15;7.15;;;;;;;21.39;27.16;102209.14;1960184;73;21054;-61
2022/02/15 10:20:47;;;;;;;19.52;7.20;;;;;;;21.47;27.06;102209.58;1960138;72;21067;-62
2022/02/15 10:23:24;;;;;;;18.23;6.55;;;;;;;21.34;27.28;102208.55;1960352;73;21511;-61
2022/02/15 10:25:56;;;;;;;23.70;8.13;;;;;;;21.26;27.14;102204.16;1960459;73;21016;-61
2022/02/15 10:28:30;;;;;;;20.75;7.25;;;;;;;21.19;27.25;102201.86;1960259;73;21066;-61
2022/02/15 10:31:00;;;;;;;17.67;7.15;;;;;;;21.04;27.42;102206.79;1960210;72;21026;-61
2022/02/15 10:33:38;;;;;;;29.12;6.22;;;;;;;21.29;27.52;102199.97;1960248;72;21026;-61
2022/02/15 10:36:09;;;;;;;14.85;5.37;;;;;;;21.01;27.26;102201.64;1960237;73;21092;-62
2022/02/15 10:38:40;;;;;;;26.70;7.03;;;;;;;20.76;27.54;102204.91;1960420;73;21010;-62
2022/02/15 10:41:15;;;;;;;16.25;5.08;;;;;;;20.73;27.76;102201.94;1960281;73;21093;-61
2022/02/15 10:43:55;;;;;;;57.35;23.65;;;;;;;20.72;27.57;102201.55;1958180;72;21171;-61
2022/02/15 10:46:26;;;;;;;15.32;5.00;;;;;;;20.57;27.40;102201.94;1960275;73;21008;-61
2022/02/15 10:48:57;;;;;;;20.90;7.58;;;;;;;20.32;27.86;102198.46;1959903;72;21445;-61
2022/02/15 10:51:27;;;;;;;14.68;6.20;;;;;;;20.28;27.95;102195.58;1960363;73;21015;-61
2022/02/15 10:53:55;;;;;;;32.93;15.78;;;;;;;20.17;28.13;102191.33;1960205;72;21079;-62
2022/02/15 10:56:26;;;;;;;29.37;12.68;;;;;;;19.93;28.11;102189.07;1960266;73;21207;-61
2022/02/15 10:58:55;;;;;;;9.05;4.05;;;;;;;19.77;28.36;102186.85;1963078;72;21292;-62
2022/02/15 11:01:24;;;;;;;17.02;7.33;;;;;;;19.99;28.33;102183.41;1979820;72;21036;-61
2022/02/15 11:03:54;;;;;;;5.87;3.72;;;;;;;19.92;28.45;102184.69;1979711;72;21400;-62
2022/02/15 11:06:23;;;;;;;8.25;3.95;;;;;;;19.67;28.72;102179.30;1979591;72;21086;-63
2022/02/15 11:08:54;;;;;;;9.55;4.22;;;;;;;19.48;29.02;102179.94;1979728;72;21002;-61
2022/02/15 11:11:27;;;;;;;10.25;5.35;;;;;;;19.55;29.19;102174.66;1979844;72;21017;-62
2022/02/15 11:13:57;;;;;;;10.28;4.92;;;;;;;19.54;29.10;102176.92;1979938;72;21013;-61
2022/02/15 11:16:26;;;;;;;8.90;3.80;;;;;;;19.21;29.54;102177.77;1979796;72;21013;-62
2022/02/15 11:18:55;;;;;;;8.45;4.22;;;;;;;19.22;29.79;102171.50;1979550;72;21040;-62
2022/02/15 11:21:25;;;;;;;9.50;4.05;;;;;;;19.16;29.92;102169.13;1979711;72;21025;-61
2022/02/15 11:24:00;;;;;;;11.85;4.17;;;;;;;19.29;30.03;102172.91;1979728;72;21060;-62
2022/02/15 11:26:34;;;;;;;15.53;6.53;;;;;;;19.26;30.28;102172.20;1976945;72;21029;-61
2022/02/15 11:29:04;;;;;;;19.98;6.62;;;;;;;19.22;30.45;102169.31;1979729;72;21076;-61
2022/02/15 11:31:41;;;;;;;11.22;5.75;;;;;;;19.12;30.71;102172.06;1979697;72;21029;-61
2022/02/15 11:34:13;;;;;;;14.90;6.83;;;;;;;19.15;30.89;102172.77;1979695;72;21021;-61
2022/02/15 11:36:49;;;;;;;18.52;5.85;;;;;;;18.87;31.12;102178.20;1979716;72;21029;-61
2022/02/15 11:39:22;;;;;;;15.38;6.12;;;;;;;18.50;31.52;102173.36;1979476;72;21138;-62
2022/02/15 11:41:52;;;;;;;13.72;4.75;;;;;;;18.19;32.04;102178.00;1979593;72;21444;-62
2022/02/15 11:44:34;;;;;;;15.00;5.08;;;;;;;17.90;32.23;102172.72;1979742;72;21169;-61
2022/02/15 11:47:14;;;;;;;;;;;;;;;17.74;32.54;102172.08;1982665;72;21176;-61
2022/02/15 11:49:57;;;;;;;17.98;4.25;;;;;;;17.58;32.82;102168.84;1979746;72;20368;-61
2022/02/15 11:52:28;;;;;;;9.58;4.40;;;;;;;17.59;32.87;102170.11;1979893;72;21487;-61
2022/02/15 11:55:06;;;;;;;9.33;3.75;;;;;;;17.47;33.06;102177.34;1979761;72;21009;-61
2022/02/15 11:57:35;;;;;;;11.93;4.53;;;;;;;17.29;33.29;102181.69;1978996;72;21385;-61
2022/02/15 12:00:10;;;;;;;9.30;4.20;;;;;;;17.03;33.62;102180.17;1978447;72;21088;-63
2022/02/15 12:02:52;;;;;;;9.50;4.67;;;;;;;16.82;33.93;102184.12;1976405;72;21494;-62